Hovedside
METAR-TAF:

METAR-TAF

Lufthavner :

Linköping, Sverige

Linköping lufthavn

breddegrad: 58-24N, lengdegrad: 015-41E, høyde over havet: 52 m

Gjeldene værobservasjon

Denne rapporten ble laget for 38 minutter siden, klokken 07:50 UTC
Vind 1 kt fra Øst
Temperatur -5°C
Luftfuktighet 100%
Trykk 1014 hPa
Sikt 10 km eller mer
Overskyet i en høyde av 1000 ft

METAR: ESSL 220750Z 10001KT 9999 OVC010 M05/M05 Q1014 R29/19//95

Tid: 09:28 (08:28 UTC)

Varsel

Denne rapporten ble laget for 2 timer og 38 minutter siden, klokken 05:50 UTC
Varsel gyldig fra 22. klokken 06 UTC til 22. klokken 15 UTC
Vind 3 kt fra Sør
Sikt 10 km eller mer
Brutte skyer i en høyde av 1200 ft
Midlertidig
fra 22. klokken 06 UTC til 22. klokken 08 UTC
Sikt 10 km eller mer
Brutte skyer i en høyde av 700 ft
Blir
fra 22. klokken 07 UTC til 22. klokken 09 UTC
Sikt 10 km eller mer
Brutte skyer i en høyde av 1500 ft

TAF: ESSL 220550Z 2206/2215 18003KT 9999 BKN012 TEMPO 2206/2208 9999 BKN007 BECMG 2207/2209 9999 BKN015 RMK MIL

Værobservasjoner og værvarsel for over 4000 flyplasser (METAR- og TAF-rapporter).

Tilgjengelige stasjoner er representert av de røde og gule prikkene på kartet.

Hold musepekeren over prikken for å se navnet på stasjonen.

Klikk så for å se værobservasjoner og -varsler.

For å forandre kartet kan du klikke på den grønne knappen med svart kryss for å zoome inn, på den grønne knappen med strek for å zoome ut, eller på de grønne pilene for å se tilstøtende kart.


METAR-TAF: